Time;durP1;ratioP1;P1;durP2;ratioP2;P2;SDS_P1;SDS_P2;PMS_P1;PMS_P2;Temp;Humidity;BMP_temperature;BMP_pressure;BME280_temperature;BME280_humidity;BME280_pressure;Samples;Min_cycle;Max_cycle;Signal;HPM_P1;HPM_P2
2022/01/07 00:00:51;;;;;;;6.43;1.60;;;6.50;99.90;;;;;;5087253;28;20020;-76
2022/01/07 00:03:18;;;;;;;6.97;1.77;;;6.50;99.90;;;;;;5069895;28;20020;-75
2022/01/07 00:05:44;;;;;;;8.63;2.10;;;6.50;99.90;;;;;;5086979;28;20028;-75
2022/01/07 00:08:09;;;;;;;14.63;4.88;;;6.50;99.90;;;;;;5087036;28;20025;-76
2022/01/07 00:10:35;;;;;;;14.63;3.30;;;6.40;99.90;;;;;;5087197;28;20072;-74
2022/01/07 00:13:01;;;;;;;7.43;1.00;;;6.40;99.90;;;;;;5087111;28;20227;-76
2022/01/07 00:15:27;;;;;;;12.23;1.75;;;6.30;99.90;;;;;;5087517;28;20199;-74
2022/01/07 00:17:52;;;;;;;6.03;1.05;;;6.30;99.90;;;;;;5088159;28;20070;-76
2022/01/07 00:20:19;;;;;;;8.07;1.10;;;6.30;99.90;;;;;;5088021;28;20092;-75
2022/01/07 00:22:46;;;;;;;13.75;1.42;;;6.30;99.90;;;;;;5053854;28;20028;-75
2022/01/07 00:25:13;;;;;;;8.10;1.13;;;6.30;99.90;;;;;;5069695;28;20020;-76
2022/01/07 00:27:39;;;;;;;11.20;1.48;;;6.40;99.90;;;;;;5069117;28;20020;-75
2022/01/07 00:30:07;;;;;;;8.85;1.45;;;6.50;99.90;;;;;;5086910;28;20019;-76
2022/01/07 00:32:33;;;;;;;7.40;1.40;;;6.40;99.90;;;;;;5087010;28;20020;-76
2022/01/07 00:34:58;;;;;;;11.98;1.42;;;6.40;99.90;;;;;;5068096;28;20025;-76
2022/01/07 00:37:24;;;;;;;13.77;1.75;;;6.30;99.90;;;;;;5085476;28;20031;-76
2022/01/07 00:39:50;;;;;;;12.00;1.45;;;6.30;99.90;;;;;;5097717;28;20059;-74
2022/01/07 00:42:16;;;;;;;6.90;1.17;;;6.30;99.90;;;;;;5109350;28;20025;-75
2022/01/07 00:44:42;;;;;;;13.02;1.48;;;6.20;99.90;;;;;;5109091;28;20119;-76
2022/01/07 00:47:07;;;;;;;8.65;1.27;;;6.10;99.90;;;;;;5115334;28;20207;-76
2022/01/07 00:49:33;;;;;;;12.48;1.23;;;6.10;99.90;;;;;;5106819;28;20020;-75
2022/01/07 00:52:01;;;;;;;10.15;1.27;;;6.10;99.90;;;;;;5106839;28;20051;-77
2022/01/07 00:54:27;;;;;;;9.27;1.25;;;6.10;99.90;;;;;;5087694;28;20020;-75
2022/01/07 00:56:53;;;;;;;12.65;1.30;;;6.20;99.90;;;;;;5088816;28;20222;-75
2022/01/07 00:59:19;;;;;;;11.30;1.52;;;6.30;99.90;;;;;;5106524;28;20083;-75
2022/01/07 01:01:46;;;;;;;4.10;1.13;;;6.20;99.90;;;;;;5106639;28;20019;-72
2022/01/07 01:04:12;;;;;;;4.05;0.80;;;5.90;99.90;;;;;;5106562;28;20073;-72
2022/01/07 01:06:40;;;;;;;7.28;0.80;;;5.20;99.90;;;;;;5106246;28;20020;-72
2022/01/07 01:09:07;;;;;;;5.68;0.82;;;4.70;99.90;;;;;;5071792;28;20016;-72
2022/01/07 01:11:34;;;;;;;5.40;0.98;;;4.40;99.90;;;;;;5106262;28;20024;-73
2022/01/07 01:13:59;;;;;;;9.23;1.10;;;4.30;99.90;;;;;;5105925;28;20027;-72
2022/01/07 01:16:25;;;;;;;4.50;1.10;;;4.20;99.90;;;;;;5106518;28;20210;-70
2022/01/07 01:18:51;;;;;;;6.63;0.70;;;4.10;99.90;;;;;;5106126;28;20016;-70
2022/01/07 01:21:16;;;;;;;4.68;0.70;;;4.10;99.90;;;;;;5106332;28;20028;-70
2022/01/07 01:23:45;;;;;;;5.72;0.70;;;4.10;99.90;;;;;;5106284;28;20031;-70
2022/01/07 01:26:12;;;;;;;8.93;0.80;;;4.10;99.90;;;;;;5105923;28;20047;-70
2022/01/07 01:28:38;;;;;;;6.43;0.70;;;4.10;99.90;;;;;;5071216;28;20060;-68
2022/01/07 01:31:04;;;;;;;5.82;1.00;;;4.10;99.90;;;;;;5088032;28;20032;-70
2022/01/07 01:33:29;;;;;;;3.88;0.50;;;4.20;99.90;;;;;;5105559;28;20024;-70
2022/01/07 01:35:55;;;;;;;8.88;1.33;;;4.30;99.90;;;;;;5105605;28;20027;-69
2022/01/07 01:38:21;;;;;;;7.82;0.80;;;4.30;99.90;;;;;;5105928;28;20370;-70
2022/01/07 01:40:47;;;;;;;13.45;1.02;;;4.30;99.90;;;;;;5109419;28;20066;-67
2022/01/07 01:43:14;;;;;;;8.25;0.90;;;4.40;99.90;;;;;;5101143;28;20039;-68
2022/01/07 01:45:40;;;;;;;10.77;1.25;;;4.40;99.90;;;;;;5117342;28;20039;-68
2022/01/07 01:48:05;;;;;;;4.68;0.73;;;4.50;99.90;;;;;;5077543;28;20029;-68
2022/01/07 01:50:31;;;;;;;4.25;0.52;;;4.50;99.90;;;;;;5094973;28;20088;-68
2022/01/07 01:52:57;;;;;;;5.93;0.90;;;4.60;99.90;;;;;;5093089;28;20177;-69
2022/01/07 01:55:26;;;;;;;7.22;1.08;;;4.50;99.90;;;;;;5088749;28;20057;-70
2022/01/07 01:57:52;;;;;;;5.65;0.63;;;4.50;99.90;;;;;;5072030;28;20032;-68
2022/01/07 02:00:20;;;;;;;11.07;1.33;;;4.50;99.90;;;;;;5069296;28;20032;-69
2022/01/07 02:02:47;;;;;;;9.43;1.10;;;4.50;99.90;;;;;;5050482;28;20290;-69
2022/01/07 02:05:13;;;;;;;4.78;1.40;;;4.60;99.90;;;;;;5067205;28;20055;-70
2022/01/07 02:07:40;;;;;;;8.70;0.90;;;4.60;99.90;;;;;;5067396;28;20020;-69
2022/01/07 02:10:08;;;;;;;8.88;1.20;;;4.60;99.90;;;;;;5084879;28;20024;-69
2022/01/07 02:12:34;;;;;;;14.05;1.33;;;4.60;99.90;;;;;;5084885;28;20020;-71
2022/01/07 02:15:00;;;;;;;14.15;2.58;;;4.60;99.90;;;;;;5066908;28;20103;-70
2022/01/07 02:17:26;;;;;;;15.57;2.65;;;4.60;99.90;;;;;;5084771;28;20066;-68
2022/01/07 02:19:53;;;;;;;12.10;1.48;;;4.70;99.90;;;;;;5084641;28;20303;-70
2022/01/07 02:22:19;;;;;;;9.70;1.42;;;4.70;99.90;;;;;;5084856;28;20026;-70
2022/01/07 02:24:46;;;;;;;19.45;1.92;;;4.70;99.90;;;;;;5084443;28;20044;-70
2022/01/07 02:27:14;;;;;;;11.77;1.52;;;4.70;99.90;;;;;;5066816;28;20307;-70
2022/01/07 02:29:40;;;;;;;15.07;1.50;;;4.80;99.90;;;;;;5084193;28;20028;-71
2022/01/07 02:32:06;;;;;;;22.90;2.15;;;4.90;99.90;;;;;;5084549;28;20027;-70
2022/01/07 02:34:32;;;;;;;12.77;2.03;;;5.00;99.90;;;;;;5083099;28;20092;-71
2022/01/07 02:36:58;;;;;;;14.38;1.50;;;5.10;99.90;;;;;;5084500;28;20024;-71
2022/01/07 02:39:24;;;;;;;19.67;2.13;;;5.20;99.90;;;;;;5087153;28;20028;-70
2022/01/07 02:41:50;;;;;;;8.70;1.42;;;5.10;99.90;;;;;;5125113;28;20023;-71
2022/01/07 02:44:15;;;;;;;15.48;1.83;;;5.10;99.90;;;;;;5125081;28;20079;-70
2022/01/07 02:46:41;;;;;;;13.77;1.45;;;5.20;99.90;;;;;;5116725;28;20353;-71
2022/01/07 02:49:09;;;;;;;7.05;1.10;;;5.20;99.90;;;;;;5104310;28;20319;-70
2022/01/07 02:51:34;;;;;;;9.00;1.05;;;5.10;99.90;;;;;;5086757;28;20073;-70
2022/01/07 02:54:00;;;;;;;5.13;1.10;;;5.20;99.90;;;;;;5104494;28;20312;-71
2022/01/07 02:56:26;;;;;;;9.93;1.48;;;5.20;99.90;;;;;;5103080;28;20069;-71
2022/01/07 02:58:51;;;;;;;7.47;1.05;;;5.20;99.90;;;;;;5104339;28;20031;-71
2022/01/07 03:01:17;;;;;;;10.38;1.10;;;5.10;99.90;;;;;;5104232;28;20196;-70
2022/01/07 03:03:43;;;;;;;8.75;1.10;;;5.10;99.90;;;;;;5104521;28;20022;-71
2022/01/07 03:06:09;;;;;;;9.32;1.48;;;5.10;99.90;;;;;;5086169;28;20026;-71
2022/01/07 03:08:34;;;;;;;11.35;1.85;;;5.00;99.90;;;;;;5104373;28;20028;-72
2022/01/07 03:11:00;;;;;;;7.05;0.88;;;4.90;99.90;;;;;;5104134;28;20023;-70
2022/01/07 03:13:26;;;;;;;5.18;1.00;;;4.90;99.90;;;;;;5104314;28;20096;-72
2022/01/07 03:15:51;;;;;;;10.60;1.05;;;4.90;99.90;;;;;;5103891;28;20076;-71
2022/01/07 03:18:17;;;;;;;7.10;0.85;;;4.90;99.90;;;;;;5104403;28;20031;-71
2022/01/07 03:20:43;;;;;;;8.15;0.95;;;4.90;99.90;;;;;;5103942;28;20016;-71
2022/01/07 03:23:12;;;;;;;12.52;2.05;;;4.80;99.90;;;;;;5086185;28;20016;-71
2022/01/07 03:25:40;;;;;;;7.43;1.38;;;4.80;99.90;;;;;;5104120;28;20087;-72
2022/01/07 03:28:07;;;;;;;8.38;1.35;;;4.80;99.90;;;;;;5086204;28;20028;-73
2022/01/07 03:30:32;;;;;;;10.48;1.08;;;4.90;99.90;;;;;;5103734;28;20039;-71
2022/01/07 03:32:58;;;;;;;14.40;1.13;;;5.00;99.90;;;;;;5104092;28;20070;-72
2022/01/07 03:35:25;;;;;;;4.22;1.00;;;5.00;99.90;;;;;;5103799;28;20303;-72
2022/01/07 03:37:51;;;;;;;15.75;1.45;;;5.00;99.90;;;;;;5104164;28;20024;-72
2022/01/07 03:40:19;;;;;;;9.18;1.20;;;4.90;99.90;;;;;;5103653;28;20056;-72
2022/01/07 03:42:46;;;;;;;3.90;0.90;;;4.90;99.90;;;;;;5069397;28;20024;-73
2022/01/07 03:45:13;;;;;;;3.33;0.75;;;4.90;99.90;;;;;;5052907;28;20290;-74
2022/01/07 03:47:39;;;;;;;4.57;0.73;;;4.80;99.90;;;;;;5087644;28;20021;-73
2022/01/07 03:50:09;;;;;;;8.48;0.82;;;4.90;99.90;;;;;;5065370;28;20070;-73
2022/01/07 03:52:35;;;;;;;15.00;1.13;;;4.80;99.90;;;;;;5066348;28;20026;-72
2022/01/07 03:55:02;;;;;;;8.10;1.70;;;4.80;99.90;;;;;;5049030;28;20032;-73
2022/01/07 03:57:27;;;;;;;8.05;1.17;;;4.90;99.90;;;;;;5081924;28;20047;-72
2022/01/07 03:59:53;;;;;;;10.13;1.58;;;4.90;99.90;;;;;;5083716;28;20020;-73
2022/01/07 04:02:19;;;;;;;8.93;1.55;;;5.00;99.90;;;;;;5083449;28;20024;-74
2022/01/07 04:04:45;;;;;;;14.93;2.40;;;5.10;99.90;;;;;;5083257;28;20034;-74
2022/01/07 04:07:11;;;;;;;9.07;1.23;;;5.10;99.90;;;;;;5083586;28;20040;-74
2022/01/07 04:09:37;;;;;;;9.48;1.38;;;5.20;99.90;;;;;;5083459;28;20071;-75
2022/01/07 04:12:04;;;;;;;18.00;2.20;;;5.20;99.90;;;;;;5086637;28;20223;-73
2022/01/07 04:14:29;;;;;;;11.15;1.08;;;5.20;99.90;;;;;;5087136;28;20028;-74
2022/01/07 04:16:55;;;;;;;8.38;0.90;;;5.20;99.90;;;;;;5087121;28;20029;-73
2022/01/07 04:19:22;;;;;;;5.05;1.00;;;5.10;99.90;;;;;;5087251;28;20024;-74
2022/01/07 04:21:49;;;;;;;8.70;0.95;;;5.10;99.90;;;;;;5069003;28;20338;-74
2022/01/07 04:24:16;;;;;;;8.88;1.10;;;5.10;99.90;;;;;;5069485;28;20115;-74
2022/01/07 04:26:42;;;;;;;4.82;0.98;;;5.00;99.90;;;;;;5069261;28;20227;-75
2022/01/07 04:29:08;;;;;;;3.47;0.77;;;5.00;99.90;;;;;;5087036;28;20024;-75
2022/01/07 04:31:33;;;;;;;10.15;1.13;;;4.90;99.90;;;;;;5086621;28;20082;-74
2022/01/07 04:33:59;;;;;;;10.05;1.75;;;4.80;99.90;;;;;;5087101;28;20040;-74
2022/01/07 04:36:25;;;;;;;4.57;0.80;;;4.80;99.90;;;;;;5086563;28;20025;-74
2022/01/07 04:38:51;;;;;;;11.88;1.60;;;4.70;99.90;;;;;;5085724;28;20024;-75
2022/01/07 04:41:17;;;;;;;6.22;1.23;;;4.80;99.90;;;;;;5121590;28;20051;-73
2022/01/07 04:43:43;;;;;;;8.27;1.58;;;4.80;99.90;;;;;;5127531;28;20047;-74
2022/01/07 04:46:09;;;;;;;9.63;1.35;;;4.90;99.90;;;;;;5105324;28;20085;-75
2022/01/07 04:48:35;;;;;;;10.20;1.30;;;4.90;99.90;;;;;;5106638;28;20020;-75
2022/01/07 04:51:00;;;;;;;6.90;1.30;;;4.90;99.90;;;;;;5088684;28;20329;-74
2022/01/07 04:53:26;;;;;;;8.95;1.65;;;4.80;99.90;;;;;;5088881;28;20211;-74
2022/01/07 04:55:53;;;;;;;6.53;0.90;;;4.80;99.90;;;;;;5106714;28;20039;-74
2022/01/07 04:58:19;;;;;;;10.65;1.20;;;4.70;99.90;;;;;;5104977;28;20023;-73
2022/01/07 05:00:46;;;;;;;15.98;1.70;;;4.60;99.90;;;;;;5071935;28;20020;-75
2022/01/07 05:03:12;;;;;;;8.20;1.50;;;4.60;99.90;;;;;;5110268;28;20027;-75
2022/01/07 05:05:38;;;;;;;9.85;1.60;;;4.60;99.90;;;;;;5103564;28;20023;-75
2022/01/07 05:08:05;;;;;;;10.35;1.90;;;4.60;99.90;;;;;;5102730;28;20016;-74
2022/01/07 05:10:31;;;;;;;13.23;2.30;;;4.60;99.90;;;;;;5119571;28;20024;-74
2022/01/07 05:12:57;;;;;;;7.82;1.15;;;4.50;99.90;;;;;;5117325;28;20035;-74
2022/01/07 05:15:23;;;;;;;6.63;1.38;;;4.50;99.90;;;;;;5115092;28;20028;-74
2022/01/07 05:17:50;;;;;;;8.07;1.27;;;4.50;99.90;;;;;;5093570;28;20020;-75
2022/01/07 05:20:16;;;;;;;13.65;1.30;;;4.60;99.90;;;;;;5106966;28;20042;-76
2022/01/07 05:22:43;;;;;;;15.75;1.75;;;4.60;99.90;;;;;;5087901;28;20388;-74
2022/01/07 05:25:10;;;;;;;10.90;1.65;;;4.60;99.90;;;;;;5105979;28;20028;-74
2022/01/07 05:27:37;;;;;;;10.50;1.67;;;4.60;99.90;;;;;;5106134;28;20038;-76
2022/01/07 05:30:06;;;;;;;8.90;1.40;;;4.60;99.90;;;;;;5105953;28;20028;-76
2022/01/07 05:32:32;;;;;;;9.20;1.65;;;4.60;99.90;;;;;;5105789;28;20085;-74
2022/01/07 05:34:58;;;;;;;7.80;1.30;;;4.60;99.90;;;;;;5087625;28;20020;-77
2022/01/07 05:37:24;;;;;;;15.70;2.92;;;4.60;99.90;;;;;;5087766;28;20207;-74
2022/01/07 05:39:49;;;;;;;12.13;1.80;;;4.60;99.90;;;;;;5105822;28;20093;-75
2022/01/07 05:42:16;;;;;;;10.82;2.53;;;4.70;99.90;;;;;;5087568;28;20093;-75
2022/01/07 05:44:41;;;;;;;15.30;3.10;;;4.70;99.90;;;;;;5087952;28;20028;-74
2022/01/07 05:47:07;;;;;;;12.32;1.55;;;4.70;99.90;;;;;;5093712;28;20099;-75
2022/01/07 05:49:33;;;;;;;18.20;1.83;;;4.70;99.90;;;;;;5085448;28;20021;-77
2022/01/07 05:51:59;;;;;;;16.63;2.40;;;4.70;99.90;;;;;;5085257;28;20070;-75
2022/01/07 05:54:24;;;;;;;12.73;1.90;;;4.70;99.90;;;;;;5085249;28;20042;-76
2022/01/07 05:56:50;;;;;;;13.30;2.45;;;4.70;99.90;;;;;;5083886;28;20193;-76
2022/01/07 05:59:16;;;;;;;13.85;2.60;;;4.70;99.90;;;;;;5084619;28;20074;-74
2022/01/07 06:01:41;;;;;;;16.95;1.92;;;4.80;99.90;;;;;;5085159;28;20044;-74
2022/01/07 06:04:07;;;;;;;10.25;1.58;;;4.80;99.90;;;;;;5085031;28;20020;-74
2022/01/07 06:06:33;;;;;;;12.48;1.70;;;4.90;99.90;;;;;;5084827;28;20024;-75
2022/01/07 06:08:59;;;;;;;9.98;1.67;;;4.90;99.90;;;;;;5085069;28;20051;-75
2022/01/07 06:11:24;;;;;;;11.27;1.77;;;5.00;99.90;;;;;;5050617;28;20024;-74
2022/01/07 06:13:50;;;;;;;11.00;2.00;;;5.00;99.90;;;;;;5050287;28;20068;-76
2022/01/07 06:16:16;;;;;;;13.30;2.45;;;5.00;99.90;;;;;;5050352;28;20330;-75
2022/01/07 06:18:50;;;;;;;12.32;1.83;;;5.10;99.90;;;;;;5084410;28;20016;-74
2022/01/07 06:21:17;;;;;;;9.35;2.05;;;5.10;99.90;;;;;;5084826;28;20024;-75
2022/01/07 06:23:42;;;;;;;10.48;1.50;;;5.10;99.90;;;;;;5066693;28;20055;-75
2022/01/07 06:26:08;;;;;;;9.27;0.93;;;5.10;99.90;;;;;;5084679;28;20237;-75
2022/01/07 06:28:34;;;;;;;8.73;1.25;;;5.20;99.90;;;;;;5084444;28;20013;-75
2022/01/07 06:30:59;;;;;;;3.80;0.80;;;5.30;99.90;;;;;;5084706;28;20095;-75
2022/01/07 06:33:25;;;;;;;6.43;1.15;;;5.30;99.90;;;;;;5083726;28;20200;-75
2022/01/07 06:35:51;;;;;;;5.13;1.10;;;5.50;99.90;;;;;;5084074;28;20036;-74
2022/01/07 06:38:17;;;;;;;9.57;1.58;;;5.60;99.90;;;;;;5083555;28;20026;-75
2022/01/07 06:40:42;;;;;;;10.15;1.40;;;5.70;99.90;;;;;;5095426;28;20051;-76
2022/01/07 06:43:08;;;;;;;8.15;1.30;;;5.70;99.90;;;;;;5103294;28;20118;-75
2022/01/07 06:45:34;;;;;;;6.53;0.95;;;5.70;99.90;;;;;;5104405;28;20080;-73
2022/01/07 06:47:59;;;;;;;9.55;1.60;;;5.70;99.90;;;;;;5104456;28;20295;-76
2022/01/07 06:50:25;;;;;;;7.60;1.77;;;5.70;99.90;;;;;;5104477;28;20024;-73
2022/01/07 06:52:50;;;;;;;9.95;1.40;;;5.50;99.90;;;;;;5104557;28;20026;-74
2022/01/07 06:55:16;;;;;;;10.82;1.70;;;5.40;99.90;;;;;;5086031;28;20069;-74
2022/01/07 06:57:42;;;;;;;10.35;1.38;;;5.30;99.90;;;;;;5102900;28;20079;-74
2022/01/07 07:00:08;;;;;;;9.52;1.70;;;5.20;99.90;;;;;;5086297;28;20039;-75
2022/01/07 07:02:34;;;;;;;11.93;2.67;;;5.20;99.90;;;;;;5086278;28;20086;-74
2022/01/07 07:05:00;;;;;;;8.52;1.15;;;5.20;99.90;;;;;;5104028;28;20031;-75
2022/01/07 07:07:25;;;;;;;7.43;1.40;;;5.20;99.90;;;;;;5086428;28;20016;-74
2022/01/07 07:09:51;;;;;;;4.47;0.88;;;4.90;99.90;;;;;;5086272;28;20295;-72
2022/01/07 07:12:17;;;;;;;4.47;0.90;;;4.60;99.90;;;;;;5104300;28;20020;-76
2022/01/07 07:14:42;;;;;;;4.72;0.82;;;4.40;99.90;;;;;;5086126;28;20059;-72
2022/01/07 07:17:09;;;;;;;4.57;0.82;;;4.30;99.90;;;;;;5104256;28;20058;-73
2022/01/07 07:19:34;;;;;;;5.40;1.10;;;4.20;99.90;;;;;;5104311;28;20023;-75
2022/01/07 07:22:00;;;;;;;10.52;0.98;;;4.10;99.90;;;;;;5086468;28;20251;-74
2022/01/07 07:24:26;;;;;;;9.35;1.27;;;4.00;99.90;;;;;;5103662;28;20020;-76
2022/01/07 07:26:51;;;;;;;4.45;0.93;;;3.90;99.90;;;;;;5103793;28;20311;-76
2022/01/07 07:29:17;;;;;;;7.53;0.95;;;3.80;99.90;;;;;;5086251;28;20304;-75
2022/01/07 07:31:48;;;;;;;6.47;1.13;;;3.80;99.90;;;;;;5104331;28;20023;-76
2022/01/07 07:34:43;;;;;;;10.85;1.63;;;3.80;99.90;;;;;;5104206;28;20097;-74
2022/01/07 07:37:00;;;;;;;12.20;1.92;;;3.80;99.90;;;;;;5075176;28;20051;-74
2022/01/07 07:39:26;;;;;;;9.45;1.13;;;3.70;99.90;;;;;;5086063;28;20024;-73
2022/01/07 07:41:52;;;;;;;18.00;1.67;;;3.80;99.90;;;;;;5086035;28;20016;-74
2022/01/07 07:44:18;;;;;;;9.77;1.40;;;3.80;99.90;;;;;;5103748;28;20097;-76
2022/01/07 07:46:44;;;;;;;11.70;1.60;;;3.70;99.90;;;;;;5063333;28;20055;-76
2022/01/07 07:49:10;;;;;;;12.88;2.00;;;3.70;99.90;;;;;;5070287;28;20043;-78
2022/01/07 07:51:37;;;;;;;12.85;1.63;;;3.70;99.90;;;;;;5087406;28;20016;-76
2022/01/07 07:54:04;;;;;;;11.27;1.85;;;3.70;99.90;;;;;;5052882;28;20362;-73
2022/01/07 07:56:31;;;;;;;10.85;1.63;;;3.70;99.90;;;;;;5070045;28;20017;-75
2022/01/07 07:58:58;;;;;;;17.50;3.15;;;3.70;99.90;;;;;;5085803;28;20040;-77
2022/01/07 08:01:24;;;;;;;8.07;1.30;;;3.80;99.90;;;;;;5087426;28;20079;-76
2022/01/07 08:03:50;;;;;;;15.23;2.40;;;3.80;99.90;;;;;;5069784;28;20019;-76
2022/01/07 08:06:16;;;;;;;11.55;1.65;;;3.80;99.90;;;;;;5086755;28;20024;-76
2022/01/07 08:08:42;;;;;;;16.10;1.77;;;3.80;99.90;;;;;;5087001;28;20047;-75
2022/01/07 08:11:11;;;;;;;12.60;1.85;;;3.70;99.90;;;;;;5066234;28;20208;-78
2022/01/07 08:16:24;;;;;;;11.68;2.20;;;3.80;99.90;;;;;;5044294;28;20073;-74
2022/01/07 08:18:54;;;;;;;18.80;2.50;;;3.90;99.90;;;;;;5085672;28;20016;-75
2022/01/07 08:21:21;;;;;;;11.32;1.38;;;3.90;99.90;;;;;;5087164;28;20025;-75
2022/01/07 08:23:47;;;;;;;9.25;1.50;;;3.80;99.90;;;;;;5086505;28;20211;-75
2022/01/07 08:26:15;;;;;;;8.43;1.67;;;3.90;99.90;;;;;;5086278;28;20029;-74
2022/01/07 08:28:46;;;;;;;8.07;2.10;;;3.90;99.90;;;;;;5051996;28;20032;-75
2022/01/07 08:31:26;;;;;;;10.23;1.35;;;3.90;99.90;;;;;;5068713;28;20020;-75
2022/01/07 08:36:38;;;;;;;9.65;2.10;;;3.90;99.90;;;;;;5070047;28;20048;-75
2022/01/07 08:39:07;;;;;;;10.98;1.98;;;4.00;99.90;;;;;;5086007;28;20020;-76
2022/01/07 08:41:34;;;;;;;11.50;2.15;;;4.00;99.90;;;;;;5104296;28;20060;-74
2022/01/07 08:43:59;;;;;;;9.10;1.55;;;4.00;99.90;;;;;;5071752;28;20099;-74
2022/01/07 08:46:25;;;;;;;9.93;1.23;;;4.10;99.90;;;;;;5105601;28;20024;-74
2022/01/07 08:48:51;;;;;;;9.88;1.80;;;4.10;99.90;;;;;;5106431;28;20036;-74
2022/01/07 08:51:17;;;;;;;11.10;1.80;;;4.10;99.90;;;;;;5071060;28;20020;-74
2022/01/07 08:53:43;;;;;;;9.02;1.60;;;4.10;99.90;;;;;;5105688;28;20032;-75
2022/01/07 08:56:10;;;;;;;15.18;2.83;;;4.20;99.90;;;;;;5087250;28;20016;-75
2022/01/07 08:58:35;;;;;;;9.55;2.22;;;4.20;99.90;;;;;;5087149;28;20065;-77
2022/01/07 09:01:02;;;;;;;9.45;2.17;;;4.30;99.90;;;;;;5084314;28;20024;-75
2022/01/07 09:03:28;;;;;;;10.45;2.25;;;4.30;99.90;;;;;;5105791;28;20023;-77
2022/01/07 09:05:53;;;;;;;18.23;2.05;;;4.30;99.90;;;;;;5087158;28;20226;-74
2022/01/07 09:08:19;;;;;;;20.90;3.47;;;4.40;99.90;;;;;;5087691;28;20073;-77
2022/01/07 09:10:45;;;;;;;15.57;3.13;;;4.50;99.90;;;;;;5105485;28;20054;-75
2022/01/07 09:13:11;;;;;;;16.95;3.50;;;4.50;99.90;;;;;;5070674;28;20032;-75
2022/01/07 09:15:37;;;;;;;12.20;3.00;;;4.60;99.90;;;;;;5105495;28;20043;-76
2022/01/07 09:18:09;;;;;;;20.27;4.40;;;4.70;99.90;;;;;;5105161;28;20237;-77
2022/01/07 09:20:41;;;;;;;19.48;3.92;;;4.70;99.90;;;;;;5088364;28;20020;-80
2022/01/07 09:23:07;;;;;;;19.48;2.92;;;4.90;99.90;;;;;;5070884;28;20028;-78
2022/01/07 09:25:33;;;;;;;11.00;3.25;;;5.00;99.90;;;;;;5105423;28;20055;-76
2022/01/07 09:27:59;;;;;;;17.20;2.67;;;5.00;99.90;;;;;;5105211;28;20031;-76
2022/01/07 09:30:25;;;;;;;20.98;4.63;;;5.20;99.90;;;;;;5087205;28;20020;-76
2022/01/07 09:32:51;;;;;;;11.63;1.90;;;5.20;99.90;;;;;;5104866;28;20281;-78
2022/01/07 09:35:17;;;;;;;12.60;3.08;;;5.20;99.90;;;;;;5086706;28;20051;-79
2022/01/07 09:37:43;;;;;;;19.77;4.10;;;5.20;99.90;;;;;;5086477;28;20122;-78
2022/01/07 09:40:10;;;;;;;16.92;2.42;;;5.20;99.90;;;;;;5104839;28;20055;-75
2022/01/07 09:42:36;;;;;;;13.07;2.47;;;5.30;99.90;;;;;;5105229;28;20051;-75
2022/01/07 09:45:02;;;;;;;13.02;3.10;;;5.40;99.90;;;;;;5105064;28;20314;-75
2022/01/07 09:47:29;;;;;;;15.75;3.70;;;5.50;99.90;;;;;;5104658;28;20024;-74
2022/01/07 09:49:55;;;;;;;16.25;2.85;;;5.60;99.90;;;;;;5086816;28;20214;-75
2022/01/07 09:52:20;;;;;;;14.35;2.95;;;5.70;99.90;;;;;;5105158;28;20020;-76
2022/01/07 09:54:47;;;;;;;11.30;1.73;;;5.80;99.90;;;;;;5104361;28;20027;-78
2022/01/07 09:57:13;;;;;;;11.05;1.70;;;5.90;99.90;;;;;;5086733;28;20042;-76
2022/01/07 09:59:39;;;;;;;11.55;2.17;;;5.90;99.90;;;;;;5086560;28;20331;-77
2022/01/07 10:02:07;;;;;;;11.38;2.45;;;6.00;99.90;;;;;;5084753;28;20024;-75
2022/01/07 10:04:36;;;;;;;20.67;4.00;;;6.00;99.90;;;;;;5069519;28;20295;-75
2022/01/07 10:07:20;;;;;;;12.55;3.00;;;6.00;99.90;;;;;;5069911;28;20087;-77
2022/01/07 10:10:14;;;;;;;13.63;2.60;;;6.10;99.90;;;;;;5102547;28;20015;-78
2022/01/07 10:13:02;;;;;;;21.00;3.72;;;6.10;99.90;;;;;;5090667;28;20065;-78
2022/01/07 10:15:31;;;;;;;15.65;3.20;;;6.10;99.90;;;;;;5104895;28;20074;-81
2022/01/07 10:18:16;;;;;;;11.70;3.80;;;6.10;99.90;;;;;;5086123;28;20052;-76
2022/01/07 10:20:45;;;;;;;15.93;2.78;;;6.20;99.90;;;;;;5089512;28;20270;-77
2022/01/07 10:23:15;;;;;;;16.10;3.10;;;6.20;99.90;;;;;;5086316;28;20043;-78
2022/01/07 10:25:45;;;;;;;11.55;1.85;;;6.20;99.90;;;;;;5086415;28;20020;-79
2022/01/07 10:28:15;;;;;;;12.30;3.25;;;6.20;99.90;;;;;;5068995;28;20016;-78
2022/01/07 10:30:47;;;;;;;13.77;1.52;;;6.30;99.90;;;;;;5086312;28;20055;-77
2022/01/07 10:33:19;;;;;;;13.80;2.08;;;6.30;99.90;;;;;;5085876;28;20253;-74
2022/01/07 10:35:47;;;;;;;10.13;1.58;;;6.30;99.90;;;;;;5068431;28;20023;-76
2022/01/07 10:38:16;;;;;;;9.40;1.25;;;6.20;99.90;;;;;;5051583;28;20018;-77
2022/01/07 10:40:43;;;;;;;13.40;1.98;;;6.20;99.90;;;;;;5080683;28;20096;-76
2022/01/07 10:43:12;;;;;;;8.73;1.40;;;6.10;99.90;;;;;;5075708;28;20028;-76
2022/01/07 10:45:40;;;;;;;8.65;1.30;;;6.10;99.90;;;;;;5076976;28;20024;-77
2022/01/07 10:48:07;;;;;;;8.07;1.25;;;6.10;99.90;;;;;;5077570;28;20016;-77
2022/01/07 10:50:36;;;;;;;7.53;1.65;;;6.10;99.90;;;;;;5048924;28;20037;-73
2022/01/07 10:53:23;;;;;;;8.35;1.48;;;6.20;99.90;;;;;;5062331;28;20017;-75
2022/01/07 10:56:11;;;;;;;6.53;1.40;;;6.20;99.90;;;;;;5048919;28;20024;-74
2022/01/07 10:58:55;;;;;;;8.15;1.70;;;6.30;99.90;;;;;;5048611;28;20040;-74
2022/01/07 11:01:38;;;;;;;10.73;1.73;;;6.40;99.90;;;;;;5060784;28;20075;-74
2022/01/07 11:04:08;;;;;;;10.43;2.03;;;6.50;99.90;;;;;;5062358;28;20029;-76
2022/01/07 11:06:35;;;;;;;9.88;1.65;;;6.50;99.90;;;;;;5075769;28;20084;-75
2022/01/07 11:09:03;;;;;;;13.95;1.38;;;6.60;99.90;;;;;;5098917;28;20024;-74
2022/01/07 11:11:30;;;;;;;11.07;1.80;;;6.70;99.90;;;;;;5098871;28;20032;-74
2022/01/07 11:14:04;;;;;;;10.85;1.70;;;6.70;99.40;;;;;;5099094;28;20048;-74
2022/01/07 11:16:30;;;;;;;13.18;1.83;;;6.80;99.60;;;;;;5082266;28;20031;-75
2022/01/07 11:18:57;;;;;;;11.30;1.20;;;6.80;99.70;;;;;;5098624;28;20033;-75
2022/01/07 11:21:22;;;;;;;9.90;1.52;;;6.90;99.60;;;;;;5083338;28;20071;-73
2022/01/07 11:23:48;;;;;;;9.02;1.85;;;6.90;99.60;;;;;;5082007;28;20087;-74
2022/01/07 11:26:16;;;;;;;13.90;1.55;;;7.00;99.70;;;;;;5083262;28;20028;-74
2022/01/07 11:29:03;;;;;;;9.30;1.40;;;7.00;99.50;;;;;;5081711;28;20078;-74
2022/01/07 11:31:30;;;;;;;11.75;2.10;;;7.00;98.80;;;;;;5082528;28;20031;-77
2022/01/07 11:34:28;;;;;;;10.82;1.48;;;7.00;98.70;;;;;;5081784;28;20097;-77
2022/01/07 11:36:54;;;;;;;13.55;1.48;;;7.10;98.50;;;;;;5082124;28;20028;-77
2022/01/07 11:39:21;;;;;;;9.63;1.50;;;7.10;99.10;;;;;;5085013;28;20023;-78
2022/01/07 11:41:50;;;;;;;8.50;1.73;;;7.10;99.00;;;;;;5105942;28;20039;-74
2022/01/07 11:44:31;;;;;;;10.73;2.03;;;7.20;98.30;;;;;;5123354;28;20337;-75
2022/01/07 11:47:21;;;;;;;12.27;1.45;;;7.30;98.00;;;;;;5094503;28;20057;-75
2022/01/07 11:50:03;;;;;;;6.65;1.15;;;7.40;97.80;;;;;;5071655;28;20042;-74
2022/01/07 11:52:40;;;;;;;5.72;1.67;;;7.40;98.10;;;;;;5084562;28;20024;-74
2022/01/07 11:55:32;;;;;;;16.92;2.42;;;7.40;97.60;;;;;;5071185;28;20131;-75
2022/01/07 11:58:04;;;;;;;7.85;1.52;;;7.40;97.80;;;;;;5076085;28;20058;-73
2022/01/07 12:00:50;;;;;;;;;;;7.40;97.70;;;;;;5078280;28;20046;-75
2022/01/07 12:03:43;;;;;;;12.60;1.65;;;7.40;97.80;;;;;;5096238;28;19907;-75
2022/01/07 12:06:45;;;;;;;17.70;2.03;;;7.40;98.10;;;;;;5096615;28;20024;-77
2022/01/07 12:09:22;;;;;;;11.23;1.67;;;7.40;98.40;;;;;;5090035;28;20058;-76
2022/01/07 12:12:07;;;;;;;13.60;2.50;;;7.50;98.60;;;;;;5106314;28;20027;-75
2022/01/07 12:14:45;;;;;;;12.43;2.00;;;7.40;98.60;;;;;;5102005;28;20032;-74
2022/01/07 12:17:15;;;;;;;14.57;2.42;;;7.40;98.80;;;;;;5103345;28;20007;-75
2022/01/07 12:20:21;;;;;;;12.45;1.80;;;7.40;99.10;;;;;;5084793;28;20027;-75
2022/01/07 12:22:48;;;;;;;13.98;2.75;;;7.40;98.70;;;;;;5070923;28;20127;-75
2022/01/07 12:25:14;;;;;;;15.70;2.72;;;7.40;98.90;;;;;;5085210;28;20241;-75
2022/01/07 12:27:39;;;;;;;15.02;1.92;;;7.50;98.60;;;;;;5085396;28;20020;-76
2022/01/07 12:30:05;;;;;;;20.25;2.22;;;7.50;98.40;;;;;;5104684;28;20196;-74
2022/01/07 12:32:34;;;;;;;7.15;1.17;;;7.50;98.90;;;;;;5107814;28;20020;-75
2022/01/07 12:35:01;;;;;;;11.38;0.93;;;7.30;98.20;;;;;;5108742;28;20020;-74
2022/01/07 12:37:27;;;;;;;11.80;1.05;;;7.10;98.90;;;;;;5108808;28;20061;-77
2022/01/07 12:39:56;;;;;;;3.10;0.57;;;6.90;98.90;;;;;;5108500;28;20055;-75
2022/01/07 12:42:24;;;;;;;5.53;0.73;;;6.70;98.70;;;;;;5108924;28;20062;-77
2022/01/07 12:44:54;;;;;;;3.05;0.52;;;6.60;99.50;;;;;;5108626;28;20023;-75
2022/01/07 12:47:22;;;;;;;0.68;0.32;;;6.60;99.60;;;;;;5078230;28;20026;-77
2022/01/07 12:49:52;;;;;;;3.92;0.52;;;6.50;99.70;;;;;;5088247;28;20028;-76
2022/01/07 12:52:24;;;;;;;5.68;0.63;;;6.50;99.90;;;;;;5070461;28;20020;-75
2022/01/07 12:55:01;;;;;;;7.05;1.33;;;6.50;99.90;;;;;;5088722;28;20052;-75
2022/01/07 12:57:36;;;;;;;4.07;1.70;;;6.40;99.90;;;;;;5088544;28;20058;-74
2022/01/07 13:00:23;;;;;;;2.88;0.82;;;6.30;99.90;;;;;;5105639;28;20096;-75
2022/01/07 13:02:51;;;;;;;4.90;0.73;;;6.20;99.90;;;;;;5087138;28;20024;-75